createdAt,value
2019-04-01T00:01:20.557Z,4.07
2019-04-01T00:03:23.907Z,1.60
2019-04-01T00:05:27.173Z,3.97
2019-04-01T00:07:33.389Z,2.47
2019-04-01T00:09:36.671Z,2.20
2019-04-01T00:11:39.957Z,2.53
2019-04-01T00:13:43.254Z,3.50
2019-04-01T00:15:46.559Z,3.27
2019-04-01T00:17:49.851Z,2.50
2019-04-01T00:19:53.161Z,2.80
2019-04-01T00:21:56.445Z,5.93
2019-04-01T00:23:59.790Z,3.80
2019-04-01T00:26:03.168Z,2.30
2019-04-01T00:28:06.548Z,2.17
2019-04-01T00:30:09.876Z,1.83
2019-04-01T00:32:16.313Z,0.73
2019-04-01T00:34:22.501Z,1.77
2019-04-01T00:36:25.943Z,4.53
2019-04-01T00:38:29.222Z,1.87
2019-04-01T00:40:32.505Z,2.47
2019-04-01T00:42:55.826Z,4.13
2019-04-01T00:45:02.295Z,1.47
2019-04-01T00:47:05.645Z,0.57
2019-04-01T00:49:09.026Z,1.30
2019-04-01T00:51:12.311Z,2.03
2019-04-01T00:53:17.959Z,1.77
2019-04-01T00:55:20.677Z,1.33
2019-04-01T00:57:28.162Z,1.97
2019-04-01T00:59:34.229Z,1.77
2019-04-01T01:01:40.367Z,1.63
2019-04-01T01:03:43.650Z,1.67
2019-04-01T01:05:46.951Z,1.80
2019-04-01T01:07:50.300Z,2.00
2019-04-01T01:09:53.646Z,1.77
2019-04-01T01:11:57.125Z,2.57
2019-04-01T01:14:00.408Z,1.90
2019-04-01T01:16:03.926Z,2.03
2019-04-01T01:18:07.313Z,1.97
2019-04-01T01:20:10.941Z,4.03
2019-04-01T01:22:14.209Z,2.73
2019-04-01T01:24:17.545Z,1.63
2019-04-01T01:26:20.816Z,3.17
2019-04-01T01:28:27.097Z,3.50
2019-04-01T01:30:30.424Z,2.03
2019-04-01T01:32:33.781Z,4.87
2019-04-01T01:34:40.037Z,2.57
2019-04-01T01:36:43.400Z,2.63
2019-04-01T01:38:46.689Z,2.97
2019-04-01T01:40:50.033Z,2.87
2019-04-01T01:42:56.341Z,4.67
2019-04-01T01:44:59.605Z,2.43
2019-04-01T01:47:02.886Z,5.03
2019-04-01T01:49:06.197Z,0.83
2019-04-01T01:51:09.479Z,2.13
2019-04-01T01:53:12.762Z,1.40
2019-04-01T01:55:16.083Z,2.47
2019-04-01T01:57:19.430Z,1.60
2019-04-01T01:59:22.713Z,1.37
2019-04-01T02:01:28.838Z,1.27
2019-04-01T02:03:32.229Z,2.27
2019-04-01T02:05:35.578Z,2.37
2019-04-01T02:07:39.073Z,1.60
2019-04-01T02:09:42.349Z,4.13
2019-04-01T02:11:45.702Z,2.23
2019-04-01T02:13:48.998Z,2.30
2019-04-01T02:15:52.275Z,1.90
2019-04-01T02:17:55.544Z,1.90
2019-04-01T02:19:58.872Z,1.83
2019-04-01T02:22:02.204Z,2.70
2019-04-01T02:24:05.482Z,1.90
2019-04-01T02:26:08.906Z,2.53
2019-04-01T02:28:12.182Z,3.77
2019-04-01T02:30:15.471Z,0.63
2019-04-01T02:32:18.855Z,1.67
2019-04-01T02:34:24.988Z,1.83
2019-04-01T02:36:30.645Z,1.97
2019-04-01T02:38:34.255Z,1.13
2019-04-01T02:40:37.607Z,1.20
2019-04-01T02:42:41.342Z,3.67
2019-04-01T02:44:44.738Z,2.77
2019-04-01T02:46:51.092Z,1.30
2019-04-01T02:48:54.473Z,1.93
2019-04-01T02:50:58.801Z,1.50
2019-04-01T02:53:02.156Z,2.13
2019-04-01T02:55:07.267Z,0.67
2019-04-01T02:57:13.677Z,2.03
2019-04-01T02:59:16.970Z,1.97
2019-04-01T03:01:23.014Z,1.33
2019-04-01T03:03:26.395Z,1.87
2019-04-01T03:05:29.684Z,3.03
2019-04-01T03:07:32.971Z,1.10
2019-04-01T03:09:36.340Z,0.63
2019-04-01T03:11:39.614Z,3.07
2019-04-01T03:13:42.979Z,2.33
2019-04-01T03:15:46.350Z,1.63
2019-04-01T03:17:49.699Z,1.70
2019-04-01T03:19:56.126Z,2.50
2019-04-01T03:21:59.441Z,1.40
2019-04-01T03:24:02.792Z,1.17
2019-04-01T03:26:06.274Z,1.50
2019-04-01T03:28:09.625Z,1.97
2019-04-01T03:30:12.975Z,0.97
2019-04-01T03:32:16.653Z,0.93
2019-04-01T03:34:20.022Z,0.57
2019-04-01T03:36:23.374Z,1.87
2019-04-01T03:38:28.062Z,1.80
2019-04-01T03:40:31.701Z,1.07
2019-04-01T03:42:34.979Z,0.80
2019-04-01T03:44:38.367Z,4.80
2019-04-01T03:46:41.693Z,2.00
2019-04-01T03:48:47.831Z,1.47
2019-04-01T03:50:51.667Z,3.07
2019-04-01T03:52:54.947Z,1.03
2019-04-01T03:54:58.220Z,1.30
2019-04-01T03:57:01.531Z,3.50
2019-04-01T03:59:04.885Z,2.17
2019-04-01T04:01:08.234Z,0.77
2019-04-01T04:03:11.617Z,1.97
2019-04-01T04:05:14.915Z,2.50
2019-04-01T04:07:18.191Z,3.00
2019-04-01T04:09:21.520Z,1.67
2019-04-01T04:11:24.843Z,4.10
2019-04-01T04:13:28.194Z,1.63
2019-04-01T04:15:37.555Z,2.77
2019-04-01T04:17:40.917Z,3.63
2019-04-01T04:19:44.261Z,3.53
2019-04-01T04:21:47.656Z,2.17
2019-04-01T04:23:51.001Z,3.90
2019-04-01T04:25:57.330Z,2.17
2019-04-01T04:28:00.727Z,2.07
2019-04-01T04:30:06.466Z,1.20
2019-04-01T04:32:09.805Z,1.70
2019-04-01T04:34:13.122Z,2.07
2019-04-01T04:36:16.416Z,1.50
2019-04-01T04:38:19.773Z,2.97
2019-04-01T04:40:23.135Z,2.00
2019-04-01T04:42:26.402Z,1.23
2019-04-01T04:44:32.740Z,1.10
2019-04-01T04:46:36.122Z,1.83
2019-04-01T04:48:39.433Z,2.93
2019-04-01T04:50:42.738Z,3.53
2019-04-01T04:52:46.029Z,0.60
2019-04-01T04:54:49.324Z,2.30
2019-04-01T04:56:52.817Z,1.87
2019-04-01T04:58:57.916Z,2.03
2019-04-01T05:01:03.985Z,1.97
2019-04-01T05:03:07.253Z,1.87
2019-04-01T05:05:10.568Z,3.17
2019-04-01T05:07:13.908Z,0.53
2019-04-01T05:09:17.229Z,1.03
2019-04-01T05:11:20.533Z,0.83
2019-04-01T05:13:23.812Z,0.40
2019-04-01T05:15:46.525Z,2.37
2019-04-01T05:17:49.837Z,1.97
2019-04-01T05:19:54.284Z,2.50
2019-04-01T05:21:57.985Z,2.07
2019-04-01T05:24:01.561Z,1.17
2019-04-01T05:26:04.837Z,1.20
2019-04-01T05:28:08.117Z,1.57
2019-04-01T05:30:11.426Z,3.07
2019-04-01T05:32:14.693Z,1.37
2019-04-01T05:34:39.023Z,0.77
2019-04-01T05:36:42.301Z,3.13
2019-04-01T05:38:45.596Z,2.17
2019-04-01T05:40:48.967Z,1.30
2019-04-01T05:42:52.243Z,1.93
2019-04-01T05:44:55.511Z,2.27
2019-04-01T05:46:58.825Z,1.97
2019-04-01T05:49:02.124Z,2.43
2019-04-01T05:51:05.466Z,1.63
2019-04-01T05:53:08.787Z,1.97
2019-04-01T05:55:12.063Z,3.83
2019-04-01T05:57:15.412Z,1.00
2019-04-01T05:59:18.714Z,0.73
2019-04-01T06:01:23.717Z,1.67
2019-04-01T06:03:27.001Z,1.43
2019-04-01T06:05:30.319Z,2.80
2019-04-01T06:07:34.165Z,2.10
2019-04-01T06:09:37.450Z,2.53
2019-04-01T06:11:40.823Z,1.60
2019-04-01T06:13:44.111Z,5.20
2019-04-01T06:15:47.391Z,2.13
2019-04-01T06:17:50.785Z,3.30
2019-04-01T06:19:54.123Z,2.73
2019-04-01T06:22:00.658Z,1.23
2019-04-01T06:24:04.298Z,1.17
2019-04-01T06:26:07.560Z,2.10
2019-04-01T06:28:10.853Z,1.77
2019-04-01T06:30:14.237Z,1.53
2019-04-01T06:32:17.599Z,3.63
2019-04-01T06:34:21.009Z,0.80
2019-04-01T06:36:24.315Z,0.73
2019-04-01T06:38:30.653Z,2.47
2019-04-01T06:40:33.951Z,1.73
2019-04-01T06:42:37.265Z,2.47
2019-04-01T06:44:40.601Z,1.23
2019-04-01T06:46:43.975Z,1.83
2019-04-01T06:48:47.387Z,3.40
2019-04-01T06:50:50.667Z,1.40
2019-04-01T06:52:53.941Z,2.10
2019-04-01T06:54:57.244Z,2.33
2019-04-01T06:57:00.677Z,1.30
2019-04-01T06:59:04.054Z,3.80
2019-04-01T07:01:07.435Z,2.93
2019-04-01T07:03:13.944Z,2.17
2019-04-01T07:05:17.220Z,1.73
2019-04-01T07:07:20.563Z,1.30
2019-04-01T07:09:24.079Z,2.43
2019-04-01T07:11:27.529Z,5.20
2019-04-01T07:13:30.967Z,3.57
2019-04-01T07:15:34.243Z,2.50
2019-04-01T07:17:37.603Z,2.70
2019-04-01T07:19:40.924Z,4.17
2019-04-01T07:21:44.267Z,3.93
2019-04-01T07:23:47.550Z,3.43
2019-04-01T07:25:50.911Z,1.87
2019-04-01T07:27:54.193Z,2.40
2019-04-01T07:30:00.463Z,1.67
2019-04-01T07:32:03.952Z,2.27
2019-04-01T07:34:07.227Z,3.57
2019-04-01T07:36:10.590Z,3.10
2019-04-01T07:38:14.207Z,3.07
2019-04-01T07:40:17.574Z,3.10
2019-04-01T07:42:25.402Z,3.33
2019-04-01T07:44:30.383Z,2.23
2019-04-01T07:46:33.760Z,1.97
2019-04-01T07:48:37.132Z,2.30
2019-04-01T07:50:40.439Z,2.57
2019-04-01T07:52:43.739Z,2.60
2019-04-01T07:54:47.507Z,1.03
2019-04-01T07:56:50.924Z,2.13
2019-04-01T07:58:54.318Z,2.33
2019-04-01T08:01:17.065Z,1.97
2019-04-01T08:03:20.411Z,4.07
2019-04-01T08:05:26.023Z,3.03
2019-04-01T08:07:28.721Z,2.73
2019-04-01T08:09:32.036Z,4.50
2019-04-01T08:11:35.558Z,3.33
2019-04-01T08:13:39.004Z,2.43
2019-04-01T08:15:42.307Z,1.27
2019-04-01T08:17:45.591Z,2.20
2019-04-01T08:19:48.913Z,3.67
2019-04-01T08:21:52.577Z,2.00
2019-04-01T08:23:55.957Z,3.57
2019-04-01T08:25:59.285Z,2.40
2019-04-01T08:28:02.636Z,2.67
2019-04-01T08:30:07.899Z,2.97
2019-04-01T08:32:13.860Z,2.70
2019-04-01T08:34:16.214Z,2.90
2019-04-01T08:36:19.559Z,4.90
2019-04-01T08:38:22.866Z,3.83
2019-04-01T08:40:26.135Z,3.50
2019-04-01T08:42:29.411Z,3.20
2019-04-01T08:44:32.726Z,3.60
2019-04-01T08:46:36.092Z,1.57
2019-04-01T08:48:39.444Z,4.33
2019-04-01T08:50:42.774Z,3.87
2019-04-01T08:52:46.064Z,4.20
2019-04-01T08:54:52.184Z,3.60
2019-04-01T08:56:54.486Z,2.23
2019-04-01T08:58:57.817Z,3.37
2019-04-01T09:01:04.172Z,3.17
2019-04-01T09:03:07.542Z,2.10
2019-04-01T09:05:11.712Z,4.27
2019-04-01T09:07:14.994Z,4.90
2019-04-01T09:09:18.298Z,4.03
2019-04-01T09:11:21.952Z,1.63
2019-04-01T09:13:25.241Z,4.63
2019-04-01T09:15:28.590Z,2.00
2019-04-01T09:17:31.872Z,2.00
2019-04-01T09:19:35.168Z,3.57
2019-04-01T09:21:38.495Z,3.03
2019-04-01T09:23:42.171Z,4.57
2019-04-01T09:25:48.315Z,3.37
2019-04-01T09:27:51.719Z,6.30
2019-04-01T09:29:55.013Z,4.33
2019-04-01T09:31:58.375Z,2.30
2019-04-01T09:34:01.749Z,2.23
2019-04-01T09:36:05.154Z,4.47
2019-04-01T09:38:08.524Z,3.83
2019-04-01T09:40:11.893Z,3.53
2019-04-01T09:42:15.174Z,4.17
2019-04-01T09:44:30.455Z,5.17
2019-04-01T09:46:27.073Z,3.70
2019-04-01T09:48:30.410Z,2.73
2019-04-01T09:50:33.689Z,3.63
2019-04-01T09:52:37.011Z,3.03
2019-04-01T09:54:40.380Z,3.50
2019-04-01T09:56:43.737Z,3.80
2019-04-01T09:58:47.049Z,2.87
2019-04-01T10:00:53.282Z,4.43
2019-04-01T10:02:55.432Z,3.13
2019-04-01T10:04:58.705Z,3.30
2019-04-01T10:07:02.019Z,2.67
2019-04-01T10:09:07.817Z,4.13
2019-04-01T10:11:12.782Z,4.80
2019-04-01T10:13:16.203Z,4.23
2019-04-01T10:15:22.501Z,3.60
2019-04-01T10:17:28.571Z,7.43
2019-04-01T10:19:34.680Z,5.17
2019-04-01T10:21:37.960Z,4.07
2019-04-01T10:24:00.703Z,2.90
2019-04-01T10:26:04.062Z,3.50
2019-04-01T10:28:10.449Z,3.33
2019-04-01T10:30:14.197Z,3.73
2019-04-01T10:32:17.538Z,4.43
2019-04-01T10:34:20.902Z,3.87
2019-04-01T10:36:27.289Z,5.20
2019-04-01T10:38:30.623Z,3.57
2019-04-01T10:40:33.972Z,4.20
2019-04-01T10:42:37.255Z,5.27
2019-04-01T10:44:43.073Z,6.37
2019-04-01T10:46:46.343Z,5.17
2019-04-01T10:48:49.778Z,4.00
2019-04-01T10:50:53.131Z,6.37
2019-04-01T10:52:56.679Z,6.87
2019-04-01T10:55:00.030Z,6.50
2019-04-01T10:57:03.395Z,5.37
2019-04-01T10:59:06.728Z,4.33
2019-04-01T11:01:10.083Z,5.47
2019-04-01T11:03:13.532Z,5.07
2019-04-01T11:05:16.948Z,3.80
2019-04-01T11:07:23.290Z,5.20
2019-04-01T11:09:37.678Z,5.23
2019-04-01T11:11:31.647Z,5.57
2019-04-01T11:13:34.993Z,3.90
2019-04-01T11:15:38.303Z,5.10
2019-04-01T11:17:41.675Z,6.30
2019-04-01T11:19:44.971Z,3.80
2019-04-01T11:21:48.313Z,5.47
2019-04-01T11:23:51.632Z,4.43
2019-04-01T11:25:54.925Z,4.40
2019-04-01T11:27:58.279Z,3.90
2019-04-01T11:30:01.614Z,5.87
2019-04-01T11:32:04.971Z,5.67
2019-04-01T11:34:08.580Z,5.60
2019-04-01T11:36:11.928Z,5.93
2019-04-01T11:38:18.185Z,4.93
2019-04-01T11:40:21.527Z,3.57
2019-04-01T11:42:24.870Z,7.17
2019-04-01T11:44:28.292Z,3.57
2019-04-01T11:46:31.653Z,5.40
2019-04-01T11:48:35.006Z,5.07
2019-04-01T11:50:38.380Z,3.80
2019-04-01T11:52:41.826Z,4.73
2019-04-01T11:54:45.098Z,3.83
2019-04-01T11:56:48.920Z,4.20
2019-04-01T11:58:52.271Z,4.20
2019-04-01T12:00:55.601Z,7.03
2019-04-01T12:02:58.943Z,3.47
2019-04-01T12:05:02.295Z,3.80
2019-04-01T12:07:10.134Z,4.30
2019-04-01T12:09:13.518Z,5.33
2019-04-01T12:11:16.875Z,5.33
2019-04-01T12:13:20.246Z,4.20
2019-04-01T12:15:23.619Z,5.10
2019-04-01T12:17:26.948Z,6.30
2019-04-01T12:19:30.326Z,6.07
2019-04-01T12:21:33.617Z,4.50
2019-04-01T12:23:36.903Z,4.23
2019-04-01T12:25:40.282Z,4.97
2019-04-01T12:27:45.146Z,7.50
2019-04-01T12:29:48.608Z,5.63
2019-04-01T12:31:54.643Z,5.10
2019-04-01T12:33:58.038Z,4.63
2019-04-01T12:36:01.382Z,4.33
2019-04-01T12:38:04.941Z,4.77
2019-04-01T12:40:08.265Z,5.77
2019-04-01T12:42:11.545Z,4.70
2019-04-01T12:44:14.820Z,5.03
2019-04-01T12:46:18.327Z,5.83
2019-04-01T12:48:25.239Z,4.57
2019-04-01T12:50:26.756Z,4.43
2019-04-01T12:52:30.069Z,4.03
2019-04-01T12:54:33.354Z,4.17
2019-04-01T12:56:36.638Z,4.33
2019-04-01T12:58:40.030Z,6.27
2019-04-01T13:00:43.742Z,4.43
2019-04-01T13:02:47.034Z,4.50
2019-04-01T13:04:51.533Z,4.80
2019-04-01T13:06:54.927Z,4.47
2019-04-01T13:08:58.271Z,4.27
2019-04-01T13:11:01.668Z,4.07
2019-04-01T13:13:05.004Z,5.53
2019-04-01T13:15:08.295Z,4.43
2019-04-01T13:17:11.690Z,4.57
2019-04-01T13:19:15.282Z,5.00
2019-04-01T13:21:19.295Z,4.07
2019-04-01T13:23:22.597Z,5.90
2019-04-01T13:25:25.923Z,4.07
2019-04-01T13:27:29.333Z,4.60
2019-04-01T13:29:32.728Z,5.10
2019-04-01T13:31:36.040Z,5.33
2019-04-01T13:33:39.410Z,5.03
2019-04-01T13:35:42.727Z,7.50
2019-04-01T13:37:46.923Z,4.00
2019-04-01T13:39:50.598Z,4.33
2019-04-01T13:41:56.163Z,5.47
2019-04-01T13:44:09.015Z,4.40
2019-04-01T13:46:12.747Z,4.90
2019-04-01T13:48:17.796Z,5.90
2019-04-01T13:50:21.066Z,4.90
2019-04-01T13:52:24.364Z,4.47
2019-04-01T13:54:27.762Z,5.07
2019-04-01T13:56:31.062Z,4.70
2019-04-01T13:58:34.328Z,4.53
2019-04-01T14:00:40.388Z,6.23
2019-04-01T14:02:43.762Z,4.57
2019-04-01T14:04:47.107Z,5.23
2019-04-01T14:06:52.237Z,4.17
2019-04-01T14:08:55.829Z,4.80
2019-04-01T14:10:59.112Z,4.87
2019-04-01T14:13:02.419Z,4.23
2019-04-01T14:15:06.640Z,4.40
2019-04-01T14:17:10.042Z,5.73
2019-04-01T14:19:13.362Z,4.67
2019-04-01T14:21:20.657Z,5.27
2019-04-01T14:23:23.396Z,4.90
2019-04-01T14:25:26.921Z,5.83
2019-04-01T14:27:30.221Z,4.70
2019-04-01T14:29:34.029Z,6.90
2019-04-01T14:31:37.310Z,5.63
2019-04-01T14:33:40.656Z,5.33
2019-04-01T14:35:45.327Z,5.33
2019-04-01T14:37:48.711Z,3.93
2019-04-01T14:39:51.988Z,5.07
2019-04-01T14:41:55.316Z,4.93
2019-04-01T14:43:58.687Z,4.77
2019-04-01T14:46:02.049Z,5.80
2019-04-01T14:48:08.455Z,4.23
2019-04-01T14:50:10.438Z,4.43
2019-04-01T14:52:13.722Z,4.83
2019-04-01T14:54:20.438Z,5.03
2019-04-01T14:56:22.129Z,7.17
2019-04-01T14:58:25.404Z,5.13
2019-04-01T15:00:28.784Z,8.57
2019-04-01T15:02:39.428Z,6.10
2019-04-01T15:04:51.371Z,7.60
2019-04-01T15:06:55.210Z,5.40
2019-04-01T15:08:58.522Z,6.20
2019-04-01T15:11:04.609Z,5.23
2019-04-01T15:13:08.700Z,7.20
2019-04-01T15:15:12.205Z,5.17
2019-04-01T15:17:15.611Z,6.13
2019-04-01T15:19:19.848Z,5.70
2019-04-01T15:21:23.127Z,5.23
2019-04-01T15:23:27.344Z,7.30
2019-04-01T15:25:31.790Z,5.53
2019-04-01T15:27:35.411Z,4.17
2019-04-01T15:29:38.695Z,4.97
2019-04-01T15:31:42.017Z,5.63
2019-04-01T15:33:45.686Z,5.37
2019-04-01T15:35:49.029Z,4.63
2019-04-01T15:37:52.475Z,5.40
2019-04-01T15:39:55.823Z,5.33
2019-04-01T15:41:59.163Z,6.87
2019-04-01T15:44:02.570Z,5.77
2019-04-01T15:46:06.497Z,4.60
2019-04-01T15:48:10.188Z,3.77
2019-04-01T15:50:27.348Z,6.17
2019-04-01T15:52:18.577Z,6.47
2019-04-01T15:54:25.281Z,4.97
2019-04-01T15:56:32.863Z,6.03
2019-04-01T15:58:42.427Z,6.43
2019-04-01T16:00:48.491Z,5.37
2019-04-01T16:02:55.861Z,5.87
2019-04-01T16:05:02.511Z,6.17
2019-04-01T16:07:08.499Z,6.03
2019-04-01T16:09:15.761Z,4.83
2019-04-01T16:11:22.625Z,6.90
2019-04-01T16:13:29.139Z,5.63
2019-04-01T16:15:36.089Z,6.17
2019-04-01T16:17:42.994Z,5.43
2019-04-01T16:19:49.389Z,5.93
2019-04-01T16:21:56.113Z,6.77
2019-04-01T16:23:59.675Z,6.20
2019-04-01T16:26:03.021Z,6.53
2019-04-01T16:28:06.348Z,7.93
2019-04-01T16:30:09.697Z,7.07
2019-04-01T16:32:13.067Z,8.37
2019-04-01T16:34:16.463Z,8.13
2019-04-01T16:36:19.823Z,5.60
2019-04-01T16:38:23.113Z,5.83
2019-04-01T16:40:26.497Z,5.77
2019-04-01T16:42:29.775Z,5.60
2019-04-01T16:44:33.209Z,5.67
2019-04-01T16:46:36.601Z,6.87
2019-04-01T16:48:39.891Z,6.33
2019-04-01T16:50:43.253Z,5.37
2019-04-01T16:52:46.625Z,7.00
2019-04-01T16:55:00.536Z,6.13
2019-04-01T16:57:03.894Z,4.67
2019-04-01T16:59:07.764Z,4.73
2019-04-01T17:01:11.040Z,4.77
2019-04-01T17:03:14.484Z,6.77
2019-04-01T17:05:18.372Z,5.17
2019-04-01T17:07:21.825Z,8.87
2019-04-01T17:09:25.259Z,4.73
2019-04-01T17:11:28.641Z,4.70
2019-04-01T17:13:31.990Z,5.10
2019-04-01T17:15:54.714Z,6.17
2019-04-01T17:17:58.147Z,5.53
2019-04-01T17:20:01.507Z,6.37
2019-04-01T17:22:04.858Z,5.33
2019-04-01T17:24:08.184Z,4.80
2019-04-01T17:26:11.536Z,5.10
2019-04-01T17:28:18.110Z,5.47
2019-04-01T17:30:21.498Z,5.47
2019-04-01T17:32:24.794Z,4.47
2019-04-01T17:34:28.226Z,5.03
2019-04-01T17:36:31.535Z,7.50
2019-04-01T17:38:36.091Z,4.53
2019-04-01T17:40:39.778Z,4.40
2019-04-01T17:42:43.084Z,4.23
2019-04-01T17:45:24.179Z,4.57
2019-04-01T17:47:27.575Z,4.53
2019-04-01T17:49:31.147Z,5.27
2019-04-01T17:51:35.185Z,6.03
2019-04-01T17:53:38.546Z,4.70
2019-04-01T17:55:45.215Z,5.77
2019-04-01T17:57:46.972Z,7.77
2019-04-01T17:59:50.336Z,5.27
2019-04-01T18:01:57.125Z,4.60
2019-04-01T18:04:02.176Z,7.73
2019-04-01T18:06:05.757Z,8.10
2019-04-01T18:08:12.020Z,8.87
2019-04-01T18:10:17.531Z,7.40
2019-04-01T18:12:21.674Z,6.70
2019-04-01T18:14:24.999Z,7.97
2019-04-01T18:16:31.179Z,6.90
2019-04-01T18:18:34.265Z,7.03
2019-04-01T18:20:37.719Z,6.07
2019-04-01T18:22:41.100Z,5.53
2019-04-01T18:24:44.382Z,5.17
2019-04-01T18:26:47.726Z,6.20
2019-04-01T18:28:51.047Z,8.13
2019-04-01T18:30:54.419Z,4.40
2019-04-01T18:32:57.696Z,5.63
2019-04-01T18:35:04.002Z,6.20
2019-04-01T18:37:06.412Z,7.40
2019-04-01T18:39:09.691Z,7.63
2019-04-01T18:41:13.043Z,11.10
2019-04-01T18:43:16.312Z,9.47
2019-04-01T18:45:19.955Z,9.30
2019-04-01T18:47:23.262Z,11.47
2019-04-01T18:49:26.535Z,7.50
2019-04-01T18:51:29.830Z,8.43
2019-04-01T18:53:33.229Z,7.60
2019-04-01T18:55:36.588Z,5.40
2019-04-01T18:57:45.695Z,7.83
2019-04-01T18:59:49.919Z,4.93
2019-04-01T19:01:53.350Z,5.77
2019-04-01T19:03:56.631Z,5.63
2019-04-01T19:05:59.941Z,6.03
2019-04-01T19:08:04.178Z,5.67
2019-04-01T19:10:07.751Z,5.03
2019-04-01T19:12:11.117Z,5.13
2019-04-01T19:14:14.501Z,5.63
2019-04-01T19:16:17.833Z,4.33
2019-04-01T19:18:21.233Z,5.87
2019-04-01T19:20:30.244Z,5.37
2019-04-01T19:22:33.184Z,5.17
2019-04-01T19:24:42.366Z,5.63
2019-04-01T19:26:46.056Z,4.57
2019-04-01T19:28:49.581Z,7.23
2019-04-01T19:30:55.958Z,6.60
2019-04-01T19:32:59.251Z,6.67
2019-04-01T19:35:02.534Z,4.50
2019-04-01T19:37:05.826Z,6.97
2019-04-01T19:39:09.099Z,6.03
2019-04-01T19:41:20.623Z,4.97
2019-04-01T19:43:32.058Z,5.13
2019-04-01T19:45:40.003Z,6.77
2019-04-01T19:47:43.520Z,5.87
2019-04-01T19:49:49.821Z,5.13
2019-04-01T19:51:57.113Z,5.73
2019-04-01T19:54:00.541Z,3.83
2019-04-01T19:56:03.871Z,5.13
2019-04-01T19:58:07.241Z,9.07
2019-04-01T20:00:10.598Z,4.23
2019-04-01T20:02:13.989Z,6.50
2019-04-01T20:04:17.614Z,7.33
2019-04-01T20:06:20.896Z,6.20
2019-04-01T20:08:24.210Z,6.17
2019-04-01T20:10:28.525Z,5.70
2019-04-01T20:12:32.037Z,5.80
2019-04-01T20:14:35.426Z,6.47
2019-04-01T20:16:38.775Z,4.80
2019-04-01T20:18:42.070Z,6.13
2019-04-01T20:20:45.479Z,4.67
2019-04-01T20:22:48.853Z,4.87
2019-04-01T20:24:52.131Z,6.57
2019-04-01T20:26:55.715Z,4.93
2019-04-01T20:28:59.039Z,7.50
2019-04-01T20:31:02.445Z,8.37
2019-04-01T20:33:16.997Z,5.43
2019-04-01T20:35:22.566Z,7.57
2019-04-01T20:37:15.795Z,5.10
2019-04-01T20:39:19.070Z,6.33
2019-04-01T20:41:22.351Z,5.77
2019-04-01T20:43:25.734Z,6.57
2019-04-01T20:45:29.007Z,6.10
2019-04-01T20:47:32.294Z,6.30
2019-04-01T20:49:37.164Z,5.57
2019-04-01T20:51:40.457Z,5.47
2019-04-01T20:53:43.811Z,5.77
2019-04-01T20:55:50.806Z,6.27
2019-04-01T20:57:54.534Z,6.77
2019-04-01T20:59:57.815Z,5.37
2019-04-01T21:02:01.157Z,5.13
2019-04-01T21:04:04.478Z,4.83
2019-04-01T21:06:10.579Z,4.63
2019-04-01T21:08:13.886Z,6.07
2019-04-01T21:10:17.188Z,4.67
2019-04-01T21:12:20.532Z,5.57
2019-04-01T21:14:23.911Z,4.23
2019-04-01T21:16:28.093Z,5.50
2019-04-01T21:18:31.781Z,5.00
2019-04-01T21:20:35.160Z,4.07
2019-04-01T21:22:38.439Z,4.80
2019-04-01T21:24:41.727Z,6.93
2019-04-01T21:26:45.110Z,5.33
2019-04-01T21:28:51.125Z,5.43
2019-04-01T21:30:54.398Z,5.43
2019-04-01T21:32:57.779Z,5.87
2019-04-01T21:35:01.136Z,4.60
2019-04-01T21:37:06.121Z,6.43
2019-04-01T21:39:12.620Z,6.53
2019-04-01T21:41:15.988Z,5.40
2019-04-01T21:43:20.307Z,5.70
2019-04-01T21:45:24.133Z,4.67
2019-04-01T21:47:27.488Z,4.87
2019-04-01T21:49:30.846Z,6.83
2019-04-01T21:51:36.976Z,5.87
2019-04-01T21:53:40.248Z,5.93
2019-04-01T21:55:43.612Z,4.73
2019-04-01T21:57:47.002Z,5.03
2019-04-01T21:59:53.010Z,4.53
2019-04-01T22:02:01.114Z,4.87
2019-04-01T22:04:04.434Z,5.80
2019-04-01T22:06:07.739Z,4.43
2019-04-01T22:08:11.030Z,4.27
2019-04-01T22:10:14.417Z,4.50
2019-04-01T22:12:17.774Z,8.50
2019-04-01T22:14:21.070Z,6.07
2019-04-01T22:16:24.477Z,5.23
2019-04-01T22:18:27.759Z,5.43
2019-04-01T22:20:31.119Z,5.93
2019-04-01T22:22:34.508Z,5.07
2019-04-01T22:24:44.166Z,6.73
2019-04-01T22:26:47.447Z,5.47
2019-04-01T22:28:51.187Z,5.57
2019-04-01T22:30:54.798Z,5.57
2019-04-01T22:32:58.078Z,4.70
2019-04-01T22:35:01.389Z,4.90
2019-04-01T22:37:08.204Z,5.50
2019-04-01T22:39:11.990Z,6.20
2019-04-01T22:41:18.064Z,4.33
2019-04-01T22:43:21.417Z,5.23
2019-04-01T22:45:24.701Z,4.83
2019-04-01T22:47:28.005Z,5.03
2019-04-01T22:49:31.411Z,5.00
2019-04-01T22:51:37.718Z,3.67
2019-04-01T22:53:41.011Z,3.70
2019-04-01T22:55:44.369Z,6.17
2019-04-01T22:57:49.345Z,4.27
2019-04-01T22:59:52.694Z,5.00
2019-04-01T23:01:59.533Z,4.70
2019-04-01T23:04:02.937Z,5.97
2019-04-01T23:06:06.670Z,4.77
2019-04-01T23:08:10.082Z,5.20
2019-04-01T23:10:16.450Z,4.97
2019-04-01T23:12:19.728Z,5.67
2019-04-01T23:14:26.262Z,5.50
2019-04-01T23:16:29.639Z,6.17
2019-04-01T23:18:32.908Z,4.57
2019-04-01T23:20:36.182Z,5.40
2019-04-01T23:22:39.490Z,5.97
2019-04-01T23:24:42.760Z,4.17
2019-04-01T23:26:46.041Z,6.63
2019-04-01T23:28:53.357Z,4.93
2019-04-01T23:30:56.994Z,4.90
2019-04-01T23:33:00.351Z,4.47
2019-04-01T23:35:04.519Z,5.77
2019-04-01T23:37:14.917Z,4.50
2019-04-01T23:39:20.985Z,6.00
2019-04-01T23:41:25.941Z,5.90
2019-04-01T23:43:33.414Z,4.70
2019-04-01T23:45:36.694Z,5.63
2019-04-01T23:47:39.991Z,5.17
2019-04-01T23:49:43.280Z,6.20
2019-04-01T23:51:46.783Z,4.73
2019-04-01T23:53:50.242Z,4.47
2019-04-01T23:55:53.588Z,6.03
2019-04-01T23:57:59.598Z,6.83
